Time;durP1;ratioP1;P1;durP2;ratioP2;P2;SDS_P1;SDS_P2;PMS_P1;PMS_P2;Temp;Humidity;BMP_temperature;BMP_pressure;BME280_temperature;BME280_humidity;BME280_pressure;Samples;Min_cycle;Max_cycle;Signal;HPM_P1;HPM_P2
2023/07/17 00:00:32;;;;;;;12.07;7.90;;;;;;;28.87;51.38;99461.75;4436539;32;34175;-72
2023/07/17 00:03:11;;;;;;;10.75;6.15;;;;;;;28.76;51.80;99462.59;4431242;32;33744;-71
2023/07/17 00:05:39;;;;;;;9.90;5.32;;;;;;;28.76;51.81;99460.72;4435948;32;33904;-71
2023/07/17 00:08:07;;;;;;;9.10;7.00;;;;;;;28.88;51.42;99471.69;4435733;32;32092;-71
2023/07/17 00:10:37;;;;;;;11.82;7.07;;;;;;;28.89;51.32;99469.78;4431139;32;33954;-70
2023/07/17 00:13:04;;;;;;;10.80;7.37;;;;;;;28.58;51.97;99469.06;4435620;32;34807;-70
2023/07/17 00:15:32;;;;;;;10.30;6.78;;;;;;;28.63;52.06;99473.84;4429979;32;33685;-71
2023/07/17 00:18:00;;;;;;;14.07;6.80;;;;;;;28.70;51.84;99480.06;4432542;32;33504;-71
2023/07/17 00:20:27;;;;;;;10.18;6.65;;;;;;;28.71;51.85;99479.00;4431268;32;34544;-71
2023/07/17 00:22:55;;;;;;;9.48;6.25;;;;;;;28.72;51.81;99476.00;4434028;32;33473;-71
2023/07/17 00:25:23;;;;;;;9.18;6.53;;;;;;;28.78;51.71;99480.56;4433082;32;33753;-71
2023/07/17 00:27:51;;;;;;;11.90;8.20;;;;;;;28.78;51.73;99477.81;4434170;32;33583;-70
2023/07/17 00:30:18;;;;;;;15.52;7.45;;;;;;;28.42;52.82;99483.56;4435098;32;34567;-69
2023/07/17 00:32:46;;;;;;;11.35;7.78;;;;;;;28.59;52.31;99473.50;4434464;32;34139;-69
2023/07/17 00:35:14;;;;;;;10.27;7.45;;;;;;;28.61;52.31;99476.03;4435889;32;33803;-70
2023/07/17 00:37:42;;;;;;;11.65;8.20;;;;;;;28.58;52.25;99482.00;4436267;32;34923;-69
2023/07/17 00:40:10;;;;;;;9.82;6.85;;;;;;;28.50;52.55;99483.19;4437217;32;33934;-69
2023/07/17 00:42:38;;;;;;;10.00;6.90;;;;;;;28.57;52.34;99483.91;4432892;32;33434;-69
2023/07/17 00:45:06;;;;;;;15.35;6.80;;;;;;;28.65;52.15;99482.72;4434437;32;33775;-70
2023/07/17 00:47:34;;;;;;;9.65;6.12;;;;;;;28.63;52.25;99485.69;4433642;32;34071;-69
2023/07/17 00:50:04;;;;;;;9.05;6.90;;;;;;;28.71;51.88;99488.13;4434276;32;33367;-70
2023/07/17 00:52:33;;;;;;;12.13;8.07;;;;;;;28.67;52.03;99491.56;4435055;32;33345;-70
2023/07/17 00:55:01;;;;;;;10.27;7.53;;;;;;;28.66;51.86;99492.66;4435797;32;34056;-69
2023/07/17 00:57:29;;;;;;;10.77;8.07;;;;;;;28.72;51.67;99489.78;4434952;32;33430;-69
2023/07/17 00:59:59;;;;;;;9.75;8.23;;;;;;;28.75;51.61;99488.47;4433239;32;33127;-69
2023/07/17 01:02:27;;;;;;;12.50;7.00;;;;;;;28.68;51.72;99488.59;4443256;32;34603;-69
2023/07/17 01:04:55;;;;;;;11.80;7.18;;;;;;;28.63;52.02;99484.88;4429035;32;33552;-69
2023/07/17 01:07:23;;;;;;;9.93;7.18;;;;;;;28.68;51.91;99479.50;4437566;32;34157;-69
2023/07/17 01:09:53;;;;;;;11.20;7.28;;;;;;;28.71;51.81;99485.34;4435750;32;33354;-69
2023/07/17 01:12:20;;;;;;;9.00;7.32;;;;;;;28.74;51.87;99486.81;4436104;32;33505;-71
2023/07/17 01:14:48;;;;;;;11.93;7.28;;;;;;;28.67;52.15;99483.31;4434203;32;33931;-72
2023/07/17 01:17:16;;;;;;;8.57;6.65;;;;;;;28.63;52.04;99479.34;4436505;32;33733;-71
2023/07/17 01:19:44;;;;;;;10.75;7.35;;;;;;;28.64;51.98;99470.03;4435445;32;32964;-71
2023/07/17 01:22:19;;;;;;;11.60;7.30;;;;;;;28.59;52.24;99478.16;4434169;32;33857;-69
2023/07/17 01:24:47;;;;;;;10.73;7.97;;;;;;;28.43;52.72;99474.22;4446241;32;34001;-70
2023/07/17 01:27:16;;;;;;;9.77;7.80;;;;;;;28.49;52.59;99481.50;4436166;32;33610;-70
2023/07/17 01:29:44;;;;;;;15.90;8.18;;;;;;;28.52;52.44;99478.28;4433440;32;33335;-69
2023/07/17 01:32:12;;;;;;;10.45;7.18;;;;;;;28.43;52.54;99466.78;4436434;32;33996;-70
2023/07/17 01:34:41;;;;;;;11.05;7.10;;;;;;;28.38;52.48;99458.38;4435821;32;34195;-70
2023/07/17 01:37:08;;;;;;;10.63;7.75;;;;;;;28.12;53.17;99467.06;4435192;32;35465;-70
2023/07/17 01:39:36;;;;;;;8.73;6.60;;;;;;;28.28;52.81;99466.38;4435691;32;34843;-70
2023/07/17 01:42:04;;;;;;;12.37;8.63;;;;;;;28.03;53.66;99466.56;4435482;32;33600;-70
2023/07/17 01:44:32;;;;;;;9.52;7.07;;;;;;;28.27;52.85;99461.94;4435801;32;33724;-72
2023/07/17 01:47:00;;;;;;;12.90;8.48;;;;;;;28.23;53.08;99466.25;4437028;32;34596;-72
2023/07/17 01:49:27;;;;;;;11.35;8.07;;;;;;;28.24;53.05;99470.69;4444840;32;33359;-71
2023/07/17 01:51:56;;;;;;;9.77;7.68;;;;;;;28.15;53.27;99469.34;4434473;32;34211;-71
2023/07/17 01:54:23;;;;;;;9.68;7.50;;;;;;;28.13;53.11;99469.59;4435390;32;34919;-70
2023/07/17 01:56:51;;;;;;;21.30;8.30;;;;;;;28.05;53.26;99465.25;4434529;32;34670;-71
2023/07/17 01:59:19;;;;;;;12.27;7.53;;;;;;;28.09;53.16;99474.72;4433685;32;33188;-71
2023/07/17 02:01:47;;;;;;;11.65;8.25;;;;;;;28.02;53.23;99476.72;4432882;32;34388;-71
2023/07/17 02:04:14;;;;;;;9.85;7.28;;;;;;;27.93;53.32;99480.03;4433842;32;33566;-71
2023/07/17 02:06:43;;;;;;;11.43;7.22;;;;;;;27.83;53.65;99486.97;4434311;32;33906;-71
2023/07/17 02:09:10;;;;;;;12.05;8.13;;;;;;;27.97;53.13;99493.09;4434118;32;33254;-71
2023/07/17 02:11:38;;;;;;;12.27;8.00;;;;;;;28.05;52.80;99500.19;4432210;32;32289;-72
2023/07/17 02:14:06;;;;;;;13.32;7.28;;;;;;;28.06;52.64;99499.13;4434777;32;33821;-71
2023/07/17 02:16:33;;;;;;;11.25;7.85;;;;;;;28.04;52.70;99502.09;4434669;32;33760;-72
2023/07/17 02:19:01;;;;;;;12.93;7.65;;;;;;;28.06;52.55;99502.72;4432704;32;34141;-71
2023/07/17 02:21:29;;;;;;;9.90;7.87;;;;;;;28.14;52.30;99506.19;4433183;32;33898;-71
2023/07/17 02:23:57;;;;;;;17.77;8.02;;;;;;;28.14;52.17;99509.78;4436797;32;33800;-72
2023/07/17 02:26:25;;;;;;;9.80;7.43;;;;;;;28.06;52.30;99513.72;4434994;32;34872;-72
2023/07/17 02:28:53;;;;;;;10.30;7.60;;;;;;;28.06;52.18;99513.72;4431177;32;33282;-71
2023/07/17 02:31:21;;;;;;;11.05;7.75;;;;;;;28.06;52.18;99519.22;4434608;32;34615;-71
2023/07/17 02:33:49;;;;;;;10.13;6.82;;;;;;;28.03;52.10;99527.94;4435341;32;35963;-71
2023/07/17 02:36:17;;;;;;;11.12;7.87;;;;;;;27.93;52.39;99527.66;4434628;32;33880;-71
2023/07/17 02:38:44;;;;;;;12.07;8.35;;;;;;;27.79;52.79;99528.91;4434504;32;33496;-71
2023/07/17 02:41:14;;;;;;;12.13;8.15;;;;;;;27.88;52.53;99541.25;4425809;32;33105;-71
2023/07/17 02:43:42;;;;;;;10.48;8.07;;;;;;;27.87;52.55;99548.69;4434455;32;33484;-71
2023/07/17 02:46:09;;;;;;;10.55;7.90;;;;;;;27.83;52.65;99550.22;4434306;32;33802;-71
2023/07/17 02:48:37;;;;;;;17.62;7.97;;;;;;;27.75;52.87;99545.00;4436133;32;34229;-71
2023/07/17 02:51:07;;;;;;;14.13;7.78;;;;;;;27.69;53.15;99545.91;4432780;32;35454;-71
2023/07/17 02:53:35;;;;;;;13.60;8.30;;;;;;;27.72;53.07;99550.94;4434145;32;34801;-71
2023/07/17 02:56:03;;;;;;;11.27;8.25;;;;;;;27.78;52.88;99543.72;4434778;32;33706;-72
2023/07/17 02:58:32;;;;;;;8.88;7.25;;;;;;;27.87;52.61;99539.59;4435043;32;34495;-72
2023/07/17 03:01:00;;;;;;;9.98;7.40;;;;;;;27.95;52.37;99541.16;4674175;26;33508;-70
2023/07/17 03:03:28;;;;;;;11.52;7.50;;;;;;;27.94;52.33;99537.56;4428177;32;32271;-70
2023/07/17 03:05:57;;;;;;;13.65;7.95;;;;;;;28.00;52.08;99547.66;4431768;32;33623;-70
2023/07/17 03:08:25;;;;;;;9.85;6.95;;;;;;;27.99;52.09;99545.94;4433348;32;33156;-69
2023/07/17 03:10:53;;;;;;;7.95;6.60;;;;;;;27.84;52.49;99542.81;4432913;32;34912;-69
2023/07/17 03:13:21;;;;;;;9.82;7.15;;;;;;;27.94;52.25;99543.09;4431715;32;33650;-70
2023/07/17 03:15:49;;;;;;;23.70;6.87;;;;;;;28.05;52.14;99544.19;4428276;32;33772;-69
2023/07/17 03:18:16;;;;;;;13.77;7.30;;;;;;;28.00;52.28;99544.06;4430575;32;34540;-70
2023/07/17 03:20:44;;;;;;;13.40;8.15;;;;;;;28.07;52.02;99542.06;4427183;32;33723;-70
2023/07/17 03:23:12;;;;;;;11.88;7.85;;;;;;;28.00;52.16;99544.06;4435135;32;33839;-70
2023/07/17 03:25:43;;;;;;;11.15;7.32;;;;;;;27.96;52.17;99545.59;4437780;32;34876;-70
2023/07/17 03:28:10;;;;;;;9.57;7.25;;;;;;;27.96;52.12;99540.09;4425654;32;34079;-69
2023/07/17 03:30:41;;;;;;;9.80;7.47;;;;;;;27.95;52.14;99541.16;4430251;32;34388;-70
2023/07/17 03:33:09;;;;;;;10.73;7.72;;;;;;;28.03;51.98;99543.59;4436947;32;34296;-71
2023/07/17 03:35:37;;;;;;;10.48;7.55;;;;;;;28.03;52.04;99546.34;4437451;32;33942;-73
2023/07/17 03:38:05;;;;;;;11.43;7.65;;;;;;;27.98;52.06;99535.19;4432436;32;34315;-74
2023/07/17 03:40:33;;;;;;;15.18;7.85;;;;;;;27.90;52.30;99536.37;4434734;32;34023;-70
2023/07/17 03:43:00;;;;;;;13.05;7.93;;;;;;;27.82;52.51;99537.53;4436188;32;33970;-70
2023/07/17 03:45:28;;;;;;;11.38;7.95;;;;;;;27.95;52.12;99539.25;4435389;32;32179;-70
2023/07/17 03:47:56;;;;;;;10.98;7.78;;;;;;;28.04;52.05;99531.50;4429363;32;33167;-68
2023/07/17 03:50:24;;;;;;;12.25;7.12;;;;;;;28.15;51.86;99538.13;4434347;32;33809;-68
2023/07/17 03:52:52;;;;;;;9.95;7.65;;;;;;;28.22;51.72;99538.84;4443549;32;34938;-66
2023/07/17 03:55:20;;;;;;;10.45;7.50;;;;;;;28.30;51.43;99533.03;4426168;32;33699;-71
2023/07/17 03:57:48;;;;;;;9.77;7.50;;;;;;;28.32;51.40;99541.91;4431358;32;33300;-72
2023/07/17 04:00:15;;;;;;;10.38;8.05;;;;;;;28.28;51.63;99541.53;4426176;32;33962;-70
2023/07/17 04:02:43;;;;;;;11.85;8.15;;;;;;;28.41;51.19;99540.53;4427062;32;33411;-71
2023/07/17 04:05:12;;;;;;;11.85;8.02;;;;;;;28.47;51.09;99535.97;4437880;32;34030;-72
2023/07/17 04:07:40;;;;;;;11.75;7.90;;;;;;;28.45;51.24;99547.22;4436259;32;33079;-69
2023/07/17 04:10:09;;;;;;;12.32;7.95;;;;;;;28.43;51.26;99535.59;4437416;32;34711;-73
2023/07/17 04:12:36;;;;;;;9.25;6.82;;;;;;;28.43;51.33;99541.09;4438123;32;32786;-75
2023/07/17 04:15:04;;;;;;;11.32;6.87;;;;;;;28.52;51.24;99547.09;4427970;32;33670;-76
2023/07/17 04:17:32;;;;;;;10.30;7.72;;;;;;;28.44;51.81;99541.94;4434082;32;33056;-77
2023/07/17 04:20:00;;;;;;;10.98;7.05;;;;;;;28.72;51.47;99533.00;4425791;32;33834;-77
2023/07/17 04:22:28;;;;;;;16.12;8.07;;;;;;;28.84;51.08;99533.03;4428764;32;33535;-76
2023/07/17 04:24:55;;;;;;;11.15;6.87;;;;;;;28.84;50.82;99535.78;4431222;32;33504;-77
2023/07/17 04:27:25;;;;;;;10.00;7.50;;;;;;;28.91;50.36;99542.81;4432419;32;32991;-76
2023/07/17 04:29:52;;;;;;;11.32;7.50;;;;;;;28.98;50.07;99545.47;4434059;32;33444;-77
2023/07/17 04:32:20;;;;;;;10.32;7.00;;;;;;;29.02;49.96;99547.53;4432908;32;34685;-77
2023/07/17 04:34:48;;;;;;;10.90;7.55;;;;;;;29.11;50.30;99547.16;4428649;32;32663;-77
2023/07/17 04:37:18;;;;;;;14.45;7.95;;;;;;;29.06;50.30;99544.31;4413825;32;31806;-76
2023/07/17 04:39:46;;;;;;;10.85;7.30;;;;;;;28.89;50.95;99545.00;4405897;32;34877;-77
2023/07/17 04:42:14;;;;;;;12.75;8.25;;;;;;;29.01;50.73;99556.88;4405523;32;33900;-74
2023/07/17 04:44:43;;;;;;;10.52;6.78;;;;;;;29.13;50.59;99540.34;4409129;32;33357;-73
2023/07/17 04:47:12;;;;;;;11.12;7.95;;;;;;;29.21;50.62;99555.66;4410260;32;33248;-75
2023/07/17 04:49:40;;;;;;;10.00;7.30;;;;;;;29.33;50.30;99548.22;4417229;32;33945;-74
2023/07/17 04:52:08;;;;;;;13.77;7.37;;;;;;;29.33;50.27;99542.72;4420733;32;33616;-75
2023/07/17 04:54:36;;;;;;;10.75;7.50;;;;;;;29.56;49.82;99552.00;4417817;32;32317;-77
2023/07/17 04:57:04;;;;;;;12.70;8.27;;;;;;;29.70;49.36;99547.94;4419909;32;33488;-76
2023/07/17 04:59:31;;;;;;;12.43;9.07;;;;;;;29.74;49.31;99546.38;4419400;32;33342;-74
2023/07/17 05:02:00;;;;;;;14.98;7.90;;;;;;;29.80;49.06;99552.81;4410990;32;34151;-74
2023/07/17 05:04:28;;;;;;;14.35;7.65;;;;;;;29.87;49.08;99551.59;4418587;32;34952;-74
2023/07/17 05:06:57;;;;;;;13.65;9.02;;;;;;;29.98;48.39;99549.84;4407865;32;33595;-74
2023/07/17 05:09:25;;;;;;;10.02;8.32;;;;;;;30.04;48.30;99548.03;4440089;32;33475;-74
2023/07/17 05:11:54;;;;;;;14.48;8.13;;;;;;;30.14;47.75;99548.22;4445497;32;35020;-76
2023/07/17 05:14:23;;;;;;;10.98;8.45;;;;;;;30.24;47.97;99551.22;4422303;32;34799;-77
2023/07/17 05:16:51;;;;;;;12.25;10.35;;;;;;;30.25;48.15;99552.06;4434389;32;33320;-78
2023/07/17 05:19:20;;;;;;;9.95;7.75;;;;;;;30.32;48.09;99556.34;4441921;32;33707;-77
2023/07/17 05:21:47;;;;;;;9.57;6.85;;;;;;;30.46;47.71;99543.03;4444261;32;34843;-78
2023/07/17 05:24:15;;;;;;;9.57;7.37;;;;;;;30.51;47.26;99545.91;4448650;32;33466;-77
2023/07/17 05:26:43;;;;;;;9.38;7.22;;;;;;;30.59;47.51;99547.38;4435156;32;34219;-75
2023/07/17 05:29:11;;;;;;;10.25;7.43;;;;;;;30.64;47.87;99540.03;4435207;32;34119;-76
2023/07/17 05:31:40;;;;;;;12.00;8.45;;;;;;;30.75;47.98;99552.06;4435154;32;32943;-73
2023/07/17 05:34:08;;;;;;;11.48;6.65;;;;;;;30.81;47.45;99548.34;4432058;32;34711;-76
2023/07/17 05:36:35;;;;;;;10.13;6.78;;;;;;;30.88;46.95;99545.41;4423779;32;34345;-75
2023/07/17 05:39:05;;;;;;;9.63;6.75;;;;;;;30.96;46.28;99549.69;4434638;32;33568;-75
2023/07/17 05:41:33;;;;;;;11.05;6.87;;;;;;;30.99;45.88;99546.41;4436927;32;33974;-75
2023/07/17 05:44:00;;;;;;;11.63;7.55;;;;;;;31.01;45.85;99549.75;4430277;32;33995;-75
2023/07/17 05:46:28;;;;;;;9.02;5.97;;;;;;;31.03;45.94;99548.41;4436926;32;33438;-76
2023/07/17 05:48:56;;;;;;;10.10;6.50;;;;;;;31.20;45.35;99542.00;4437233;32;33429;-74
2023/07/17 05:51:24;;;;;;;11.43;7.00;;;;;;;31.28;44.15;99547.09;4435516;32;34953;-75
2023/07/17 05:53:52;;;;;;;9.60;7.03;;;;;;;31.37;44.34;99545.63;4433871;32;33837;-73
2023/07/17 05:56:20;;;;;;;9.65;7.85;;;;;;;31.50;44.97;99549.94;4436532;32;33372;-68
2023/07/17 05:58:48;;;;;;;8.45;6.40;;;;;;;31.46;44.06;99552.37;4435823;32;34747;-70
2023/07/17 06:01:16;;;;;;;9.05;6.65;;;;;;;31.57;43.37;99556.09;4431788;32;33658;-69
2023/07/17 06:03:44;;;;;;;13.07;6.97;;;;;;;31.45;44.35;99558.16;4434947;32;34862;-69
2023/07/17 06:06:12;;;;;;;13.45;7.32;;;;;;;31.57;44.90;99553.34;4432422;32;33888;-69
2023/07/17 06:08:39;;;;;;;10.43;7.45;;;;;;;31.51;44.14;99559.87;4435430;32;34995;-70
2023/07/17 06:11:07;;;;;;;14.18;7.95;;;;;;;31.50;44.48;99555.47;4433776;32;34168;-69
2023/07/17 06:13:35;;;;;;;12.40;8.75;;;;;;;31.57;44.46;99558.87;4434161;32;34246;-70
2023/07/17 06:16:02;;;;;;;10.23;6.90;;;;;;;31.55;43.61;99549.97;4432928;32;34282;-73
2023/07/17 06:18:30;;;;;;;10.30;8.25;;;;;;;31.68;44.35;99555.12;4438103;32;34903;-75
2023/07/17 06:20:58;;;;;;;10.38;6.60;;;;;;;31.79;45.34;99550.56;4428559;32;34142;-74
2023/07/17 06:23:26;;;;;;;9.05;6.12;;;;;;;31.83;42.77;99556.41;4428899;32;33442;-74
2023/07/17 06:25:54;;;;;;;10.75;6.40;;;;;;;31.69;42.74;99548.50;4426972;32;32791;-74
2023/07/17 06:28:21;;;;;;;9.77;6.20;;;;;;;31.91;42.49;99548.53;4429502;32;33587;-73
2023/07/17 06:30:49;;;;;;;12.43;7.07;;;;;;;31.92;41.21;99546.59;4431875;32;35162;-73
2023/07/17 06:33:17;;;;;;;12.20;8.65;;;;;;;32.05;41.33;99553.66;4428817;32;33498;-74
2023/07/17 06:35:45;;;;;;;10.85;7.50;;;;;;;32.25;41.54;99557.47;4434221;32;32819;-74
2023/07/17 06:38:13;;;;;;;11.18;7.07;;;;;;;32.31;41.23;99554.75;4437150;32;33348;-73
2023/07/17 06:40:40;;;;;;;10.50;6.68;;;;;;;32.14;41.78;99552.94;4436832;32;35381;-74
2023/07/17 06:43:09;;;;;;;9.75;6.10;;;;;;;32.34;40.46;99548.69;4433572;32;33729;-74
2023/07/17 06:45:36;;;;;;;8.65;5.87;;;;;;;32.14;42.11;99555.69;4436116;32;34225;-75
2023/07/17 06:48:04;;;;;;;9.88;6.75;;;;;;;32.38;41.71;99549.81;4435705;32;34669;-74
2023/07/17 06:50:32;;;;;;;10.75;6.20;;;;;;;32.30;41.59;99550.31;4430677;32;34485;-74
2023/07/17 06:52:59;;;;;;;8.88;6.50;;;;;;;32.57;41.01;99553.91;4437062;32;33830;-75
2023/07/17 06:55:27;;;;;;;8.68;7.65;;;;;;;32.58;41.20;99552.78;4437338;32;34490;-74
2023/07/17 06:57:55;;;;;;;11.10;6.55;;;;;;;32.52;40.86;99551.09;4438049;32;33699;-74
2023/07/17 07:00:23;;;;;;;10.50;6.60;;;;;;;32.71;40.40;99548.75;4431214;32;35417;-75
2023/07/17 07:02:51;;;;;;;10.35;7.68;;;;;;;32.74;41.79;99551.00;4432609;32;34833;-75
2023/07/17 07:05:18;;;;;;;8.75;6.40;;;;;;;32.84;40.70;99544.69;4430854;32;33522;-74
2023/07/17 07:07:46;;;;;;;11.48;6.32;;;;;;;32.90;40.26;99550.00;4424420;32;34870;-76
2023/07/17 07:10:14;;;;;;;11.77;7.12;;;;;;;32.99;40.82;99544.84;4429283;32;34214;-80
2023/07/17 07:12:42;;;;;;;11.60;8.50;;;;;;;33.07;41.26;99549.88;4435445;32;33964;-81
2023/07/17 07:15:10;;;;;;;7.95;6.00;;;;;;;33.11;39.99;99548.25;4433050;32;33449;-84
2023/07/17 07:17:38;;;;;;;10.68;6.90;;;;;;;33.28;39.24;99550.84;4433022;32;33584;-75
2023/07/17 07:20:06;;;;;;;8.45;6.37;;;;;;;33.08;39.15;99551.56;4427016;32;35036;-76
2023/07/17 07:22:34;;;;;;;9.40;6.65;;;;;;;33.08;38.84;99540.47;4431832;32;33359;-77
2023/07/17 07:25:02;;;;;;;11.15;6.60;;;;;;;32.90;39.42;99550.00;4435694;32;33215;-77
2023/07/17 07:27:31;;;;;;;9.07;6.57;;;;;;;33.09;38.97;99544.91;4434670;32;33558;-76
2023/07/17 07:29:58;;;;;;;9.25;6.78;;;;;;;32.91;38.88;99543.37;4430084;32;33945;-80
2023/07/17 07:32:26;;;;;;;9.93;6.03;;;;;;;32.70;38.63;99545.16;4432434;32;35123;-79
2023/07/17 07:34:54;;;;;;;8.57;5.62;;;;;;;32.82;39.26;99542.19;4435700;32;34166;-79
2023/07/17 07:37:22;;;;;;;8.45;6.30;;;;;;;33.11;38.57;99539.09;4430795;32;35286;-80
2023/07/17 07:39:49;;;;;;;8.20;6.72;;;;;;;33.37;36.98;99537.31;4435268;32;33649;-77
2023/07/17 07:42:17;;;;;;;8.85;4.90;;;;;;;33.52;37.20;99539.34;4437007;32;35040;-74
2023/07/17 07:44:45;;;;;;;9.65;6.18;;;;;;;33.20;36.37;99536.66;4428779;32;32988;-75
2023/07/17 07:47:13;;;;;;;10.57;5.53;;;;;;;33.54;35.79;99537.94;4432533;32;33967;-75
2023/07/17 07:49:40;;;;;;;7.65;5.50;;;;;;;33.35;37.39;99533.94;4433344;32;34260;-73
2023/07/17 07:52:08;;;;;;;12.52;6.53;;;;;;;33.55;35.78;99536.87;4434717;32;33658;-74
2023/07/17 07:54:36;;;;;;;10.48;6.20;;;;;;;33.76;36.15;99542.47;4442156;32;33842;-71
2023/07/17 07:57:04;;;;;;;7.43;5.70;;;;;;;33.68;36.65;99541.09;4447106;32;33644;-71
2023/07/17 07:59:31;;;;;;;12.50;5.68;;;;;;;33.40;35.41;99537.59;4444742;32;33829;-71
2023/07/17 08:01:59;;;;;;;8.07;5.10;;;;;;;33.62;36.28;99534.66;4444365;32;34554;-71
2023/07/17 08:04:28;;;;;;;10.73;6.20;;;;;;;33.91;36.34;99548.09;4446215;32;33183;-74
2023/07/17 08:06:56;;;;;;;8.35;5.97;;;;;;;34.10;34.58;99539.28;4448193;32;33536;-72
2023/07/17 08:09:24;;;;;;;8.68;5.65;;;;;;;33.90;35.39;99540.03;4442587;32;34787;-72
2023/07/17 08:11:52;;;;;;;10.77;5.75;;;;;;;33.93;35.37;99543.09;4431189;32;34243;-72
2023/07/17 08:14:22;;;;;;;10.77;6.28;;;;;;;34.05;33.62;99535.37;4429557;32;32653;-74
2023/07/17 08:16:50;;;;;;;8.35;5.62;;;;;;;34.06;34.01;99539.84;4432426;32;33494;-74
2023/07/17 08:19:19;;;;;;;9.15;5.70;;;;;;;34.15;34.12;99530.97;4434037;32;34064;-75
2023/07/17 08:21:46;;;;;;;9.38;5.57;;;;;;;34.22;34.09;99526.81;4433078;32;35020;-74
2023/07/17 08:24:14;;;;;;;12.48;6.12;;;;;;;34.12;35.14;99534.28;4430375;32;33375;-74
2023/07/17 08:26:43;;;;;;;9.65;5.97;;;;;;;33.99;33.84;99533.66;4432066;32;34738;-75
2023/07/17 08:29:11;;;;;;;8.73;6.32;;;;;;;34.19;35.28;99529.28;4431197;32;35070;-75
2023/07/17 08:31:40;;;;;;;8.35;6.47;;;;;;;34.03;34.28;99532.06;4429793;32;34174;-75
2023/07/17 08:34:08;;;;;;;9.63;7.15;;;;;;;33.80;34.33;99538.06;4415129;32;32060;-80
2023/07/17 08:36:36;;;;;;;9.05;6.60;;;;;;;33.95;34.59;99537.28;4416343;32;32474;-79
2023/07/17 08:39:06;;;;;;;10.32;6.85;;;;;;;33.91;35.88;99536.16;4417978;32;34687;-77
2023/07/17 08:41:35;;;;;;;8.23;6.25;;;;;;;34.08;35.86;99539.56;4411504;32;33984;-78
2023/07/17 08:44:03;;;;;;;8.25;5.37;;;;;;;34.56;34.89;99542.97;4432896;32;32902;-77
2023/07/17 08:46:31;;;;;;;8.98;6.22;;;;;;;34.43;34.59;99549.88;4432077;32;33633;-78
2023/07/17 08:49:00;;;;;;;8.65;5.65;;;;;;;34.26;34.85;99546.53;4432054;32;34048;-78
2023/07/17 08:51:29;;;;;;;13.27;6.22;;;;;;;34.39;34.45;99547.94;4415861;32;34921;-79
2023/07/17 08:53:57;;;;;;;8.10;5.97;;;;;;;34.52;34.34;99537.13;4415169;32;34595;-78
2023/07/17 08:56:46;;;;;;;10.00;6.53;;;;;;;34.39;33.79;99536.84;4404136;32;33333;-79
2023/07/17 08:59:14;;;;;;;8.02;5.72;;;;;;;34.80;33.79;99536.84;4412798;32;34629;-78
2023/07/17 09:01:42;;;;;;;10.75;6.55;;;;;;;34.69;34.24;99542.41;4386427;32;34496;-79
2023/07/17 09:04:12;;;;;;;13.15;6.72;;;;;;;34.48;34.48;99540.69;4384550;32;32919;-72
2023/07/17 09:06:39;;;;;;;8.00;6.57;;;;;;;34.82;33.67;99541.00;4386988;32;33431;-82
2023/07/17 09:09:09;;;;;;;10.05;6.30;;;;;;;35.03;33.99;99543.81;4384380;32;33695;-78
2023/07/17 09:11:37;;;;;;;9.55;6.22;;;;;;;35.26;33.27;99542.38;4393696;32;33464;-73
2023/07/17 09:14:07;;;;;;;10.20;6.72;;;;;;;35.28;32.88;99534.56;4388176;32;33507;-73
2023/07/17 09:16:35;;;;;;;9.15;7.10;;;;;;;35.44;32.26;99536.16;4383455;32;35077;-73
2023/07/17 09:19:03;;;;;;;12.50;7.12;;;;;;;34.68;34.38;99534.38;4395807;32;33818;-73
2023/07/17 09:21:31;;;;;;;8.00;6.32;;;;;;;34.92;32.99;99532.66;4395957;32;33183;-75
2023/07/17 09:23:58;;;;;;;9.75;7.28;;;;;;;34.88;33.93;99528.78;4403704;32;33048;-74
2023/07/17 09:26:28;;;;;;;8.57;6.78;;;;;;;35.22;32.85;99526.25;4404946;32;33819;-75
2023/07/17 09:28:57;;;;;;;9.27;6.32;;;;;;;35.57;32.69;99527.25;4411312;32;34087;-74
2023/07/17 09:31:25;;;;;;;9.98;6.80;;;;;;;35.58;32.63;99525.31;4400459;32;33346;-75
2023/07/17 09:34:00;;;;;;;10.13;6.75;;;;;;;35.34;33.05;99525.06;4414487;32;33054;-75
2023/07/17 09:36:28;;;;;;;12.50;6.12;;;;;;;35.62;33.15;99527.22;4383719;32;34750;-74
2023/07/17 09:38:58;;;;;;;8.73;6.75;;;;;;;35.78;33.05;99524.38;4390749;32;32789;-73
2023/07/17 09:41:27;;;;;;;11.18;6.75;;;;;;;35.78;31.67;99536.34;4401679;32;33426;-73
2023/07/17 09:44:03;;;;;;;7.43;5.55;;;;;;;35.63;32.61;99520.53;4416379;32;33025;-73
2023/07/17 09:46:38;;;;;;;8.18;6.12;;;;;;;36.32;31.26;99523.50;4384899;32;33383;-75
2023/07/17 09:49:07;;;;;;;8.82;7.03;;;;;;;36.19;31.59;99530.56;4388502;32;34862;-75
2023/07/17 09:51:35;;;;;;;8.57;6.80;;;;;;;36.52;31.09;99528.13;4387063;32;33911;-73
2023/07/17 09:54:03;;;;;;;10.15;6.82;;;;;;;36.28;32.03;99523.25;4385848;32;33380;-74
2023/07/17 09:56:32;;;;;;;10.02;7.20;;;;;;;36.54;31.13;99523.09;4385357;32;35002;-75
2023/07/17 09:59:09;;;;;;;11.00;7.18;;;;;;;36.44;31.72;99520.31;4375525;32;34221;-74
2023/07/17 10:01:37;;;;;;;8.63;6.30;;;;;;;36.11;31.47;99518.06;4385933;32;34806;-74
2023/07/17 10:04:05;;;;;;;9.88;7.30;;;;;;;36.54;31.72;99517.50;4385172;32;34207;-73
2023/07/17 10:06:33;;;;;;;11.15;7.20;;;;;;;36.48;32.45;99518.66;4375318;32;33435;-73
2023/07/17 10:09:02;;;;;;;9.45;6.50;;;;;;;36.54;31.92;99517.50;4396567;32;33762;-74
2023/07/17 10:11:30;;;;;;;8.10;7.00;;;;;;;36.76;31.95;99512.28;4415617;32;33523;-73
2023/07/17 10:13:57;;;;;;;9.60;6.62;;;;;;;37.02;31.21;99512.06;4416075;32;32256;-75
2023/07/17 10:16:26;;;;;;;12.02;7.75;;;;;;;36.96;31.65;99510.41;4412642;32;33648;-75
2023/07/17 10:18:55;;;;;;;10.02;6.07;;;;;;;37.20;30.76;99513.25;4427481;32;34190;-75
2023/07/17 10:21:23;;;;;;;9.82;7.37;;;;;;;37.04;31.55;99512.59;4431978;32;33959;-75
2023/07/17 10:23:50;;;;;;;10.38;7.43;;;;;;;37.57;30.14;99506.16;4429494;32;33341;-75
2023/07/17 10:26:20;;;;;;;11.80;7.32;;;;;;;37.78;30.04;99512.28;4431348;32;35423;-75
2023/07/17 10:28:50;;;;;;;9.73;7.45;;;;;;;37.74;30.21;99495.28;4435970;32;34016;-78
2023/07/17 10:31:23;;;;;;;11.20;7.28;;;;;;;37.47;30.21;99504.31;4432396;32;33920;-76
2023/07/17 10:33:53;;;;;;;12.77;6.37;;;;;;;37.22;31.87;99499.84;4433676;32;34217;-78
2023/07/17 10:36:40;;;;;;;12.15;7.57;;;;;;;37.57;30.34;99490.22;4435879;32;35051;-78
2023/07/17 10:39:14;;;;;;;13.27;7.50;;;;;;;37.72;30.45;99481.66;4444250;32;33877;-77
2023/07/17 10:41:42;;;;;;;;;;;;;;;36.92;31.08;99475.84;4418308;32;33290;-76
2023/07/17 10:44:18;;;;;;;10.73;7.90;;;;;;;37.43;30.86;99476.13;4415328;32;33217;-78
2023/07/17 10:46:47;;;;;;;10.40;7.55;;;;;;;37.33;31.49;99478.22;4416421;32;32524;-75
2023/07/17 10:49:17;;;;;;;11.50;8.68;;;;;;;37.28;32.24;99477.16;4417390;32;34070;-77
2023/07/17 10:51:49;;;;;;;13.05;7.90;;;;;;;37.18;32.32;99476.47;4417600;32;33766;-77
2023/07/17 10:54:18;;;;;;;9.82;7.85;;;;;;;37.10;32.71;99474.31;4401081;32;32835;-77
2023/07/17 10:56:48;;;;;;;11.23;7.97;;;;;;;37.03;33.10;99477.47;4399599;32;33919;-77
2023/07/17 10:59:19;;;;;;;11.63;8.30;;;;;;;36.51;33.27;99471.53;4399845;32;34159;-76
2023/07/17 11:01:47;;;;;;;12.30;8.02;;;;;;;36.67;33.71;99479.75;4398449;32;34593;-74
2023/07/17 11:04:17;;;;;;;13.90;8.60;;;;;;;36.77;32.92;99472.12;4398931;32;33234;-74
2023/07/17 11:06:45;;;;;;;9.20;7.65;;;;;;;36.42;32.74;99476.03;4354984;32;33703;-74
2023/07/17 11:09:13;;;;;;;9.63;7.57;;;;;;;36.03;33.46;99465.78;4355857;32;35195;-75
2023/07/17 11:11:40;;;;;;;9.20;6.68;;;;;;;36.05;32.91;99468.25;4355468;32;33968;-75
2023/07/17 11:14:08;;;;;;;8.80;7.50;;;;;;;35.88;33.17;99451.91;4385187;32;33033;-75
2023/07/17 11:16:39;;;;;;;9.60;7.18;;;;;;;36.15;33.62;99455.09;4381631;32;33515;-75
2023/07/17 11:19:07;;;;;;;11.12;8.20;;;;;;;36.38;33.82;99449.91;4381608;32;34942;-74
2023/07/17 11:21:34;;;;;;;9.23;7.45;;;;;;;36.08;34.90;99454.56;4383700;32;34980;-75
2023/07/17 11:24:06;;;;;;;9.93;6.20;;;;;;;36.34;33.46;99446.88;4384817;32;33843;-74
2023/07/17 11:26:34;;;;;;;11.38;7.47;;;;;;;35.79;33.81;99448.91;4392963;32;33516;-76
2023/07/17 11:29:02;;;;;;;12.93;7.00;;;;;;;36.03;33.48;99440.69;4397178;32;34408;-76
2023/07/17 11:31:33;;;;;;;9.38;7.07;;;;;;;36.36;34.00;99436.25;4395183;32;33543;-76
2023/07/17 11:34:12;;;;;;;12.10;7.35;;;;;;;36.84;31.42;99436.34;4392204;32;34136;-76